sensor_id;sensor_type;location;lat;lon;timestamp;temperature;humidity
55634;DHT22;41504;53.162;6.788;2022-07-17T00:01:03;14.90;68.10
55634;DHT22;41504;53.162;6.788;2022-07-17T00:03:29;14.80;68.10
55634;DHT22;41504;53.162;6.788;2022-07-17T00:05:54;14.70;68.00
55634;DHT22;41504;53.162;6.788;2022-07-17T00:08:20;14.70;68.20
55634;DHT22;41504;53.162;6.788;2022-07-17T00:10:46;14.60;68.40
55634;DHT22;41504;53.162;6.788;2022-07-17T00:13:11;14.60;68.40
55634;DHT22;41504;53.162;6.788;2022-07-17T00:15:37;14.50;68.50
55634;DHT22;41504;53.162;6.788;2022-07-17T00:18:03;14.50;68.90
55634;DHT22;41504;53.162;6.788;2022-07-17T00:20:29;14.50;68.80
55634;DHT22;41504;53.162;6.788;2022-07-17T00:22:56;14.40;68.90
55634;DHT22;41504;53.162;6.788;2022-07-17T00:25:22;14.30;69.10
55634;DHT22;41504;53.162;6.788;2022-07-17T00:27:48;14.30;69.30
55634;DHT22;41504;53.162;6.788;2022-07-17T00:30:14;14.30;69.40
55634;DHT22;41504;53.162;6.788;2022-07-17T00:32:41;14.20;69.40
55634;DHT22;41504;53.162;6.788;2022-07-17T00:35:07;14.20;69.50
55634;DHT22;41504;53.162;6.788;2022-07-17T00:37:44;14.10;69.80
55634;DHT22;41504;53.162;6.788;2022-07-17T00:40:12;14.10;70.20
55634;DHT22;41504;53.162;6.788;2022-07-17T00:42:39;14.10;70.10
55634;DHT22;41504;53.162;6.788;2022-07-17T00:45:10;14.10;70.20
55634;DHT22;41504;53.162;6.788;2022-07-17T00:47:57;14.10;70.20
55634;DHT22;41504;53.162;6.788;2022-07-17T00:50:29;14.00;70.10
55634;DHT22;41504;53.162;6.788;2022-07-17T00:52:55;14.00;70.30
55634;DHT22;41504;53.162;6.788;2022-07-17T00:55:22;13.90;70.30
55634;DHT22;41504;53.162;6.788;2022-07-17T00:57:49;13.80;70.40
55634;DHT22;41504;53.162;6.788;2022-07-17T01:00:16;13.80;70.90
55634;DHT22;41504;53.162;6.788;2022-07-17T01:02:49;13.70;71.00
55634;DHT22;41504;53.162;6.788;2022-07-17T01:05:16;13.60;71.30
55634;DHT22;41504;53.162;6.788;2022-07-17T01:07:42;13.50;71.50
55634;DHT22;41504;53.162;6.788;2022-07-17T01:10:09;13.40;71.90
55634;DHT22;41504;53.162;6.788;2022-07-17T01:12:35;13.30;72.10
55634;DHT22;41504;53.162;6.788;2022-07-17T01:15:01;13.30;72.40
55634;DHT22;41504;53.162;6.788;2022-07-17T01:17:27;13.20;72.60
55634;DHT22;41504;53.162;6.788;2022-07-17T01:19:53;13.20;72.90
55634;DHT22;41504;53.162;6.788;2022-07-17T01:22:19;13.30;73.10
55634;DHT22;41504;53.162;6.788;2022-07-17T01:24:45;13.20;73.00
55634;DHT22;41504;53.162;6.788;2022-07-17T01:27:11;13.30;72.80
55634;DHT22;41504;53.162;6.788;2022-07-17T01:29:38;13.30;73.60
55634;DHT22;41504;53.162;6.788;2022-07-17T01:32:05;13.40;73.10
55634;DHT22;41504;53.162;6.788;2022-07-17T01:34:31;13.40;73.10
55634;DHT22;41504;53.162;6.788;2022-07-17T01:36:57;13.40;72.90
55634;DHT22;41504;53.162;6.788;2022-07-17T01:39:23;13.30;72.80
55634;DHT22;41504;53.162;6.788;2022-07-17T01:42:07;13.40;73.10
55634;DHT22;41504;53.162;6.788;2022-07-17T01:44:33;13.30;73.20
55634;DHT22;41504;53.162;6.788;2022-07-17T01:46:59;13.30;73.10
55634;DHT22;41504;53.162;6.788;2022-07-17T01:49:24;13.30;73.10
55634;DHT22;41504;53.162;6.788;2022-07-17T01:51:50;13.30;73.00
55634;DHT22;41504;53.162;6.788;2022-07-17T01:54:16;13.20;73.00
55634;DHT22;41504;53.162;6.788;2022-07-17T01:56:42;13.20;73.20
55634;DHT22;41504;53.162;6.788;2022-07-17T01:59:08;13.10;73.40
55634;DHT22;41504;53.162;6.788;2022-07-17T02:01:34;13.00;73.60
55634;DHT22;41504;53.162;6.788;2022-07-17T02:04:00;13.00;73.80
55634;DHT22;41504;53.162;6.788;2022-07-17T02:06:26;12.90;74.00
55634;DHT22;41504;53.162;6.788;2022-07-17T02:08:51;12.90;74.10
55634;DHT22;41504;53.162;6.788;2022-07-17T02:11:18;13.00;74.30
55634;DHT22;41504;53.162;6.788;2022-07-17T02:13:43;13.00;74.00
55634;DHT22;41504;53.162;6.788;2022-07-17T02:16:09;13.00;73.80
55634;DHT22;41504;53.162;6.788;2022-07-17T02:18:35;13.00;73.80
55634;DHT22;41504;53.162;6.788;2022-07-17T02:21:01;13.00;74.50
55634;DHT22;41504;53.162;6.788;2022-07-17T02:23:27;12.90;73.90
55634;DHT22;41504;53.162;6.788;2022-07-17T02:25:54;12.90;74.10
55634;DHT22;41504;53.162;6.788;2022-07-17T02:28:20;12.80;74.30
55634;DHT22;41504;53.162;6.788;2022-07-17T02:30:47;12.80;74.40
55634;DHT22;41504;53.162;6.788;2022-07-17T02:33:13;12.70;74.50
55634;DHT22;41504;53.162;6.788;2022-07-17T02:35:39;12.70;74.60
55634;DHT22;41504;53.162;6.788;2022-07-17T02:38:04;12.80;74.80
55634;DHT22;41504;53.162;6.788;2022-07-17T02:40:30;12.80;75.00
55634;DHT22;41504;53.162;6.788;2022-07-17T02:42:56;12.70;75.00
55634;DHT22;41504;53.162;6.788;2022-07-17T02:45:22;12.80;74.80
55634;DHT22;41504;53.162;6.788;2022-07-17T02:47:51;12.80;74.80
55634;DHT22;41504;53.162;6.788;2022-07-17T02:50:17;12.80;74.60
55634;DHT22;41504;53.162;6.788;2022-07-17T02:52:43;12.80;74.80
55634;DHT22;41504;53.162;6.788;2022-07-17T02:55:10;12.80;75.00
55634;DHT22;41504;53.162;6.788;2022-07-17T02:57:37;12.80;75.00
55634;DHT22;41504;53.162;6.788;2022-07-17T03:00:06;12.80;74.90
55634;DHT22;41504;53.162;6.788;2022-07-17T03:02:32;12.70;74.80
55634;DHT22;41504;53.162;6.788;2022-07-17T03:04:58;12.80;74.90
55634;DHT22;41504;53.162;6.788;2022-07-17T03:07:23;12.70;74.70
55634;DHT22;41504;53.162;6.788;2022-07-17T03:09:49;12.70;74.70
55634;DHT22;41504;53.162;6.788;2022-07-17T03:12:15;12.60;74.90
55634;DHT22;41504;53.162;6.788;2022-07-17T03:14:41;12.60;75.10
55634;DHT22;41504;53.162;6.788;2022-07-17T03:17:07;12.50;75.60
55634;DHT22;41504;53.162;6.788;2022-07-17T03:19:32;12.50;75.70
55634;DHT22;41504;53.162;6.788;2022-07-17T03:21:58;12.50;75.70
55634;DHT22;41504;53.162;6.788;2022-07-17T03:24:24;12.50;75.70
55634;DHT22;41504;53.162;6.788;2022-07-17T03:26:49;12.50;75.60
55634;DHT22;41504;53.162;6.788;2022-07-17T03:29:15;12.50;75.60
55634;DHT22;41504;53.162;6.788;2022-07-17T03:31:46;12.30;75.70
55634;DHT22;41504;53.162;6.788;2022-07-17T03:34:12;12.40;75.80
55634;DHT22;41504;53.162;6.788;2022-07-17T03:36:38;12.30;75.80
55634;DHT22;41504;53.162;6.788;2022-07-17T03:39:04;12.20;75.90
55634;DHT22;41504;53.162;6.788;2022-07-17T03:41:30;12.20;76.10
55634;DHT22;41504;53.162;6.788;2022-07-17T03:43:56;12.20;76.30
55634;DHT22;41504;53.162;6.788;2022-07-17T03:46:22;12.20;76.40
55634;DHT22;41504;53.162;6.788;2022-07-17T03:48:48;12.10;76.50
55634;DHT22;41504;53.162;6.788;2022-07-17T03:51:13;12.20;76.70
55634;DHT22;41504;53.162;6.788;2022-07-17T03:53:39;12.20;76.80
55634;DHT22;41504;53.162;6.788;2022-07-17T03:56:05;12.10;76.70
55634;DHT22;41504;53.162;6.788;2022-07-17T03:58:31;12.10;76.60
55634;DHT22;41504;53.162;6.788;2022-07-17T04:00:58;12.20;76.60
55634;DHT22;41504;53.162;6.788;2022-07-17T04:03:23;12.20;76.90
55634;DHT22;41504;53.162;6.788;2022-07-17T04:05:49;12.20;76.90
55634;DHT22;41504;53.162;6.788;2022-07-17T04:08:15;12.30;76.90
55634;DHT22;41504;53.162;6.788;2022-07-17T04:10:42;12.40;77.00
55634;DHT22;41504;53.162;6.788;2022-07-17T04:13:07;12.40;77.30
55634;DHT22;41504;53.162;6.788;2022-07-17T04:15:33;12.50;76.70
55634;DHT22;41504;53.162;6.788;2022-07-17T04:18:28;12.50;77.20
55634;DHT22;41504;53.162;6.788;2022-07-17T04:20:57;12.50;76.40
55634;DHT22;41504;53.162;6.788;2022-07-17T04:23:23;12.50;76.40
55634;DHT22;41504;53.162;6.788;2022-07-17T04:25:49;12.50;76.50
55634;DHT22;41504;53.162;6.788;2022-07-17T04:28:15;12.50;77.10
55634;DHT22;41504;53.162;6.788;2022-07-17T04:30:41;12.40;76.60
55634;DHT22;41504;53.162;6.788;2022-07-17T04:33:07;12.30;76.70
55634;DHT22;41504;53.162;6.788;2022-07-17T04:35:33;12.40;76.70
55634;DHT22;41504;53.162;6.788;2022-07-17T04:37:59;12.40;76.80
55634;DHT22;41504;53.162;6.788;2022-07-17T04:40:25;12.40;76.90
55634;DHT22;41504;53.162;6.788;2022-07-17T04:42:50;12.40;77.00
55634;DHT22;41504;53.162;6.788;2022-07-17T04:45:16;12.40;76.90
55634;DHT22;41504;53.162;6.788;2022-07-17T04:47:42;12.40;77.00
55634;DHT22;41504;53.162;6.788;2022-07-17T04:50:09;12.50;77.00
55634;DHT22;41504;53.162;6.788;2022-07-17T04:52:35;12.50;77.00
55634;DHT22;41504;53.162;6.788;2022-07-17T04:55:00;12.50;77.00
55634;DHT22;41504;53.162;6.788;2022-07-17T04:57:26;12.50;77.10
55634;DHT22;41504;53.162;6.788;2022-07-17T04:59:52;12.50;77.30
55634;DHT22;41504;53.162;6.788;2022-07-17T05:02:18;12.40;77.40
55634;DHT22;41504;53.162;6.788;2022-07-17T05:04:43;12.50;77.70
55634;DHT22;41504;53.162;6.788;2022-07-17T05:07:09;12.50;77.80
55634;DHT22;41504;53.162;6.788;2022-07-17T05:09:35;12.50;78.00
55634;DHT22;41504;53.162;6.788;2022-07-17T05:12:01;12.50;78.10
55634;DHT22;41504;53.162;6.788;2022-07-17T05:14:26;12.50;78.00
55634;DHT22;41504;53.162;6.788;2022-07-17T05:16:52;12.50;78.10
55634;DHT22;41504;53.162;6.788;2022-07-17T05:19:18;12.40;78.10
55634;DHT22;41504;53.162;6.788;2022-07-17T05:21:44;12.40;78.30
55634;DHT22;41504;53.162;6.788;2022-07-17T05:24:09;12.40;78.40
55634;DHT22;41504;53.162;6.788;2022-07-17T05:26:36;12.40;78.40
55634;DHT22;41504;53.162;6.788;2022-07-17T05:29:02;12.50;78.40
55634;DHT22;41504;53.162;6.788;2022-07-17T05:31:28;12.50;78.20
55634;DHT22;41504;53.162;6.788;2022-07-17T05:33:53;12.60;78.40
55634;DHT22;41504;53.162;6.788;2022-07-17T05:36:19;12.60;78.30
55634;DHT22;41504;53.162;6.788;2022-07-17T05:38:45;12.70;78.20
55634;DHT22;41504;53.162;6.788;2022-07-17T05:41:11;12.80;78.20
55634;DHT22;41504;53.162;6.788;2022-07-17T05:43:37;12.80;78.20
55634;DHT22;41504;53.162;6.788;2022-07-17T05:46:03;12.90;78.20
55634;DHT22;41504;53.162;6.788;2022-07-17T05:48:30;13.00;78.10
55634;DHT22;41504;53.162;6.788;2022-07-17T05:50:57;13.00;78.20
55634;DHT22;41504;53.162;6.788;2022-07-17T05:53:23;13.10;78.20
55634;DHT22;41504;53.162;6.788;2022-07-17T05:55:49;13.10;78.10
55634;DHT22;41504;53.162;6.788;2022-07-17T05:58:15;13.20;78.10
55634;DHT22;41504;53.162;6.788;2022-07-17T06:00:40;13.20;78.20
55634;DHT22;41504;53.162;6.788;2022-07-17T06:03:06;13.30;78.10
55634;DHT22;41504;53.162;6.788;2022-07-17T06:05:32;13.30;78.20
55634;DHT22;41504;53.162;6.788;2022-07-17T06:07:58;13.40;78.30
55634;DHT22;41504;53.162;6.788;2022-07-17T06:10:25;13.50;78.10
55634;DHT22;41504;53.162;6.788;2022-07-17T06:12:52;13.70;77.90
55634;DHT22;41504;53.162;6.788;2022-07-17T06:15:19;13.90;77.60
55634;DHT22;41504;53.162;6.788;2022-07-17T06:17:45;14.10;77.30
55634;DHT22;41504;53.162;6.788;2022-07-17T06:20:12;14.20;76.90
55634;DHT22;41504;53.162;6.788;2022-07-17T06:22:38;14.40;76.40
55634;DHT22;41504;53.162;6.788;2022-07-17T06:25:04;14.50;76.00
55634;DHT22;41504;53.162;6.788;2022-07-17T06:27:30;14.70;75.30
55634;DHT22;41504;53.162;6.788;2022-07-17T06:29:56;14.90;74.90
55634;DHT22;41504;53.162;6.788;2022-07-17T06:32:21;15.00;74.50
55634;DHT22;41504;53.162;6.788;2022-07-17T06:34:47;15.10;74.00
55634;DHT22;41504;53.162;6.788;2022-07-17T06:37:13;15.20;73.10
55634;DHT22;41504;53.162;6.788;2022-07-17T06:39:38;15.40;72.90
55634;DHT22;41504;53.162;6.788;2022-07-17T06:42:04;15.50;72.70
55634;DHT22;41504;53.162;6.788;2022-07-17T06:44:30;15.60;71.90
55634;DHT22;41504;53.162;6.788;2022-07-17T06:46:56;15.70;71.80
55634;DHT22;41504;53.162;6.788;2022-07-17T06:49:22;15.70;71.70
55634;DHT22;41504;53.162;6.788;2022-07-17T06:51:47;15.80;71.80
55634;DHT22;41504;53.162;6.788;2022-07-17T06:54:14;15.80;72.00
55634;DHT22;41504;53.162;6.788;2022-07-17T06:56:40;15.90;71.90
55634;DHT22;41504;53.162;6.788;2022-07-17T06:59:05;15.90;71.90
55634;DHT22;41504;53.162;6.788;2022-07-17T07:01:35;15.80;71.90
55634;DHT22;41504;53.162;6.788;2022-07-17T07:04:01;15.80;71.80
55634;DHT22;41504;53.162;6.788;2022-07-17T07:06:26;15.90;72.10
55634;DHT22;41504;53.162;6.788;2022-07-17T07:08:52;15.80;72.30
55634;DHT22;41504;53.162;6.788;2022-07-17T07:11:18;15.90;72.40
55634;DHT22;41504;53.162;6.788;2022-07-17T07:13:43;15.90;72.50
55634;DHT22;41504;53.162;6.788;2022-07-17T07:16:09;15.90;72.70
55634;DHT22;41504;53.162;6.788;2022-07-17T07:18:36;15.90;72.90
55634;DHT22;41504;53.162;6.788;2022-07-17T07:21:02;15.90;72.90
55634;DHT22;41504;53.162;6.788;2022-07-17T07:23:28;15.90;72.90
55634;DHT22;41504;53.162;6.788;2022-07-17T07:25:54;16.00;72.90
55634;DHT22;41504;53.162;6.788;2022-07-17T07:28:20;16.00;72.70
55634;DHT22;41504;53.162;6.788;2022-07-17T07:30:46;16.10;72.50
55634;DHT22;41504;53.162;6.788;2022-07-17T07:33:12;16.10;72.20
55634;DHT22;41504;53.162;6.788;2022-07-17T07:35:38;16.20;71.80
55634;DHT22;41504;53.162;6.788;2022-07-17T07:38:04;16.20;71.40
55634;DHT22;41504;53.162;6.788;2022-07-17T07:40:30;16.20;71.00
55634;DHT22;41504;53.162;6.788;2022-07-17T07:42:56;16.20;71.00
55634;DHT22;41504;53.162;6.788;2022-07-17T07:45:23;16.20;71.00
55634;DHT22;41504;53.162;6.788;2022-07-17T07:47:50;16.30;70.80
55634;DHT22;41504;53.162;6.788;2022-07-17T07:50:17;16.30;70.40
55634;DHT22;41504;53.162;6.788;2022-07-17T07:52:43;16.30;70.40
55634;DHT22;41504;53.162;6.788;2022-07-17T07:55:10;16.40;70.10
55634;DHT22;41504;53.162;6.788;2022-07-17T07:57:36;16.40;70.20
55634;DHT22;41504;53.162;6.788;2022-07-17T08:00:04;16.40;70.30
55634;DHT22;41504;53.162;6.788;2022-07-17T08:02:30;16.50;70.30
55634;DHT22;41504;53.162;6.788;2022-07-17T08:04:56;16.60;70.60
55634;DHT22;41504;53.162;6.788;2022-07-17T08:07:21;16.70;69.90
55634;DHT22;41504;53.162;6.788;2022-07-17T08:09:47;16.80;70.00
55634;DHT22;41504;53.162;6.788;2022-07-17T08:12:14;16.80;70.00
55634;DHT22;41504;53.162;6.788;2022-07-17T08:14:39;16.90;70.00
55634;DHT22;41504;53.162;6.788;2022-07-17T08:17:05;16.90;69.60
55634;DHT22;41504;53.162;6.788;2022-07-17T08:19:31;16.90;69.20
55634;DHT22;41504;53.162;6.788;2022-07-17T08:21:57;16.80;69.00
55634;DHT22;41504;53.162;6.788;2022-07-17T08:24:22;16.80;69.20
55634;DHT22;41504;53.162;6.788;2022-07-17T08:26:48;16.80;69.30
55634;DHT22;41504;53.162;6.788;2022-07-17T08:29:14;16.90;69.10
55634;DHT22;41504;53.162;6.788;2022-07-17T08:31:41;17.00;68.80
55634;DHT22;41504;53.162;6.788;2022-07-17T08:34:07;17.10;68.60
55634;DHT22;41504;53.162;6.788;2022-07-17T08:36:33;17.20;68.40
55634;DHT22;41504;53.162;6.788;2022-07-17T08:38:59;17.30;68.10
55634;DHT22;41504;53.162;6.788;2022-07-17T08:41:25;17.30;67.70
55634;DHT22;41504;53.162;6.788;2022-07-17T08:43:51;17.40;67.70
55634;DHT22;41504;53.162;6.788;2022-07-17T08:46:23;17.40;67.60
55634;DHT22;41504;53.162;6.788;2022-07-17T08:48:57;17.60;67.40
55634;DHT22;41504;53.162;6.788;2022-07-17T08:51:26;17.60;67.10
55634;DHT22;41504;53.162;6.788;2022-07-17T08:53:53;17.70;67.00
55634;DHT22;41504;53.162;6.788;2022-07-17T08:56:19;17.80;66.40
55634;DHT22;41504;53.162;6.788;2022-07-17T08:58:45;17.90;66.10
55634;DHT22;41504;53.162;6.788;2022-07-17T09:01:11;17.90;65.90
55634;DHT22;41504;53.162;6.788;2022-07-17T09:03:39;17.90;66.00
55634;DHT22;41504;53.162;6.788;2022-07-17T09:06:19;18.00;65.50
55634;DHT22;41504;53.162;6.788;2022-07-17T09:08:46;18.00;65.50
55634;DHT22;41504;53.162;6.788;2022-07-17T09:11:11;18.00;65.70
55634;DHT22;41504;53.162;6.788;2022-07-17T09:13:37;18.00;65.90
55634;DHT22;41504;53.162;6.788;2022-07-17T09:16:09;18.10;65.90
55634;DHT22;41504;53.162;6.788;2022-07-17T09:18:49;18.30;65.70
55634;DHT22;41504;53.162;6.788;2022-07-17T09:21:26;18.40;65.60
55634;DHT22;41504;53.162;6.788;2022-07-17T09:23:59;18.50;65.50
55634;DHT22;41504;53.162;6.788;2022-07-17T09:26:25;18.60;64.30
55634;DHT22;41504;53.162;6.788;2022-07-17T09:28:52;18.60;64.30
55634;DHT22;41504;53.162;6.788;2022-07-17T09:31:26;18.60;64.80
55634;DHT22;41504;53.162;6.788;2022-07-17T09:33:52;18.70;64.60
55634;DHT22;41504;53.162;6.788;2022-07-17T09:36:18;18.70;64.40
55634;DHT22;41504;53.162;6.788;2022-07-17T09:38:43;18.70;64.50
55634;DHT22;41504;53.162;6.788;2022-07-17T09:41:18;18.80;64.40
55634;DHT22;41504;53.162;6.788;2022-07-17T09:44:00;18.90;63.70
55634;DHT22;41504;53.162;6.788;2022-07-17T09:46:29;19.00;63.50
55634;DHT22;41504;53.162;6.788;2022-07-17T09:49:00;19.00;63.50
55634;DHT22;41504;53.162;6.788;2022-07-17T09:51:30;19.10;63.60
55634;DHT22;41504;53.162;6.788;2022-07-17T09:53:59;19.20;63.40
55634;DHT22;41504;53.162;6.788;2022-07-17T09:56:27;19.20;63.10
55634;DHT22;41504;53.162;6.788;2022-07-17T09:58:56;19.30;63.20
55634;DHT22;41504;53.162;6.788;2022-07-17T10:01:25;19.40;62.80
55634;DHT22;41504;53.162;6.788;2022-07-17T10:03:51;19.40;62.60
55634;DHT22;41504;53.162;6.788;2022-07-17T10:06:20;19.40;62.90
55634;DHT22;41504;53.162;6.788;2022-07-17T10:08:46;19.40;62.90
55634;DHT22;41504;53.162;6.788;2022-07-17T10:11:13;19.60;63.00
55634;DHT22;41504;53.162;6.788;2022-07-17T10:13:44;19.70;62.50
55634;DHT22;41504;53.162;6.788;2022-07-17T10:16:11;19.80;60.70
55634;DHT22;41504;53.162;6.788;2022-07-17T10:18:42;19.70;61.70
55634;DHT22;41504;53.162;6.788;2022-07-17T10:21:13;19.80;61.20
55634;DHT22;41504;53.162;6.788;2022-07-17T10:23:41;19.70;60.90
55634;DHT22;41504;53.162;6.788;2022-07-17T10:26:08;19.70;60.70
55634;DHT22;41504;53.162;6.788;2022-07-17T10:28:44;19.80;61.00
55634;DHT22;41504;53.162;6.788;2022-07-17T10:31:14;19.70;61.50
55634;DHT22;41504;53.162;6.788;2022-07-17T10:34:04;19.90;61.30
55634;DHT22;41504;53.162;6.788;2022-07-17T10:36:34;20.00;61.00
55634;DHT22;41504;53.162;6.788;2022-07-17T10:41:35;20.30;60.50
55634;DHT22;41504;53.162;6.788;2022-07-17T10:44:01;20.40;59.60
55634;DHT22;41504;53.162;6.788;2022-07-17T10:46:27;20.40;59.60
55634;DHT22;41504;53.162;6.788;2022-07-17T10:48:55;20.50;60.00
55634;DHT22;41504;53.162;6.788;2022-07-17T10:51:24;20.60;59.70
55634;DHT22;41504;53.162;6.788;2022-07-17T10:53:50;20.70;59.10
55634;DHT22;41504;53.162;6.788;2022-07-17T10:56:17;20.70;58.60
55634;DHT22;41504;53.162;6.788;2022-07-17T10:58:44;20.70;58.80
55634;DHT22;41504;53.162;6.788;2022-07-17T11:01:20;20.80;58.90
55634;DHT22;41504;53.162;6.788;2022-07-17T11:03:51;20.90;58.60
55634;DHT22;41504;53.162;6.788;2022-07-17T11:06:28;21.10;58.20
55634;DHT22;41504;53.162;6.788;2022-07-17T11:09:01;21.10;57.80
55634;DHT22;41504;53.162;6.788;2022-07-17T11:11:38;21.20;58.10
55634;DHT22;41504;53.162;6.788;2022-07-17T11:16:35;21.40;57.00
55634;DHT22;41504;53.162;6.788;2022-07-17T11:19:01;21.40;57.10
55634;DHT22;41504;53.162;6.788;2022-07-17T11:21:27;21.50;57.20
55634;DHT22;41504;53.162;6.788;2022-07-17T11:23:56;21.60;56.90
55634;DHT22;41504;53.162;6.788;2022-07-17T11:26:23;21.70;56.40
55634;DHT22;41504;53.162;6.788;2022-07-17T11:28:50;21.70;56.20
55634;DHT22;41504;53.162;6.788;2022-07-17T11:31:22;21.70;56.50
55634;DHT22;41504;53.162;6.788;2022-07-17T11:33:53;21.80;55.60
55634;DHT22;41504;53.162;6.788;2022-07-17T11:36:23;21.90;55.60
55634;DHT22;41504;53.162;6.788;2022-07-17T11:38:49;22.00;55.70
55634;DHT22;41504;53.162;6.788;2022-07-17T11:41:18;22.10;55.40
55634;DHT22;41504;53.162;6.788;2022-07-17T11:43:44;22.00;54.70
55634;DHT22;41504;53.162;6.788;2022-07-17T11:46:10;22.10;54.80
55634;DHT22;41504;53.162;6.788;2022-07-17T11:48:43;22.20;54.80
55634;DHT22;41504;53.162;6.788;2022-07-17T11:51:09;22.30;55.40
55634;DHT22;41504;53.162;6.788;2022-07-17T11:53:36;22.50;54.80
55634;DHT22;41504;53.162;6.788;2022-07-17T11:56:03;22.60;53.90
55634;DHT22;41504;53.162;6.788;2022-07-17T11:58:44;22.60;53.40
55634;DHT22;41504;53.162;6.788;2022-07-17T12:01:12;22.50;52.40
55634;DHT22;41504;53.162;6.788;2022-07-17T12:03:38;22.40;53.00
55634;DHT22;41504;53.162;6.788;2022-07-17T12:06:04;22.40;53.30
55634;DHT22;41504;53.162;6.788;2022-07-17T12:08:30;22.50;53.50
55634;DHT22;41504;53.162;6.788;2022-07-17T12:11:01;22.50;53.70
55634;DHT22;41504;53.162;6.788;2022-07-17T12:13:46;22.60;52.30
55634;DHT22;41504;53.162;6.788;2022-07-17T12:16:28;22.50;52.00
55634;DHT22;41504;53.162;6.788;2022-07-17T12:19:12;22.40;53.00
55634;DHT22;41504;53.162;6.788;2022-07-17T12:21:59;22.50;52.90
55634;DHT22;41504;53.162;6.788;2022-07-17T12:24:35;22.60;52.50
55634;DHT22;41504;53.162;6.788;2022-07-17T12:27:04;22.80;52.40
55634;DHT22;41504;53.162;6.788;2022-07-17T12:29:30;22.80;51.40
55634;DHT22;41504;53.162;6.788;2022-07-17T12:32:13;22.90;51.50
55634;DHT22;41504;53.162;6.788;2022-07-17T12:34:40;22.90;51.60
55634;DHT22;41504;53.162;6.788;2022-07-17T12:37:20;23.10;52.50
55634;DHT22;41504;53.162;6.788;2022-07-17T12:39:47;23.20;50.40
55634;DHT22;41504;53.162;6.788;2022-07-17T12:42:14;23.20;51.20
55634;DHT22;41504;53.162;6.788;2022-07-17T12:44:40;23.20;49.80
55634;DHT22;41504;53.162;6.788;2022-07-17T12:47:08;23.20;49.10
55634;DHT22;41504;53.162;6.788;2022-07-17T12:49:34;23.20;48.90
55634;DHT22;41504;53.162;6.788;2022-07-17T12:52:00;23.10;49.40
55634;DHT22;41504;53.162;6.788;2022-07-17T12:54:26;23.10;50.10
55634;DHT22;41504;53.162;6.788;2022-07-17T12:56:52;23.10;50.00
55634;DHT22;41504;53.162;6.788;2022-07-17T12:59:18;23.20;50.00
55634;DHT22;41504;53.162;6.788;2022-07-17T13:01:45;23.40;48.80
55634;DHT22;41504;53.162;6.788;2022-07-17T13:04:11;23.40;48.70
55634;DHT22;41504;53.162;6.788;2022-07-17T13:06:37;23.50;49.20
55634;DHT22;41504;53.162;6.788;2022-07-17T13:09:03;23.60;49.20
55634;DHT22;41504;53.162;6.788;2022-07-17T13:11:29;23.80;48.10
55634;DHT22;41504;53.162;6.788;2022-07-17T13:13:56;23.80;47.90
55634;DHT22;41504;53.162;6.788;2022-07-17T13:16:22;23.80;47.60
55634;DHT22;41504;53.162;6.788;2022-07-17T13:18:48;23.80;47.70
55634;DHT22;41504;53.162;6.788;2022-07-17T13:21:13;23.80;47.50
55634;DHT22;41504;53.162;6.788;2022-07-17T13:23:39;23.70;48.10
55634;DHT22;41504;53.162;6.788;2022-07-17T13:26:06;23.90;48.80
55634;DHT22;41504;53.162;6.788;2022-07-17T13:28:32;24.10;47.90
55634;DHT22;41504;53.162;6.788;2022-07-17T13:30:58;24.20;47.90
55634;DHT22;41504;53.162;6.788;2022-07-17T13:33:25;24.20;47.70
55634;DHT22;41504;53.162;6.788;2022-07-17T13:35:51;24.30;48.00
55634;DHT22;41504;53.162;6.788;2022-07-17T13:38:17;24.50;47.70
55634;DHT22;41504;53.162;6.788;2022-07-17T13:40:43;24.60;47.10
55634;DHT22;41504;53.162;6.788;2022-07-17T13:43:08;24.60;47.20
55634;DHT22;41504;53.162;6.788;2022-07-17T13:45:34;24.70;47.00
55634;DHT22;41504;53.162;6.788;2022-07-17T13:48:00;24.70;46.90
55634;DHT22;41504;53.162;6.788;2022-07-17T13:50:26;24.70;47.50
55634;DHT22;41504;53.162;6.788;2022-07-17T13:52:52;24.80;47.10
55634;DHT22;41504;53.162;6.788;2022-07-17T13:55:19;24.90;46.80
55634;DHT22;41504;53.162;6.788;2022-07-17T13:57:45;24.90;46.90
55634;DHT22;41504;53.162;6.788;2022-07-17T14:00:11;24.90;46.10
55634;DHT22;41504;53.162;6.788;2022-07-17T14:02:37;24.80;47.00
55634;DHT22;41504;53.162;6.788;2022-07-17T14:05:05;24.90;46.90
55634;DHT22;41504;53.162;6.788;2022-07-17T14:07:31;25.00;46.70
55634;DHT22;41504;53.162;6.788;2022-07-17T14:09:57;25.20;47.00
55634;DHT22;41504;53.162;6.788;2022-07-17T14:12:23;25.30;46.20
55634;DHT22;41504;53.162;6.788;2022-07-17T14:14:49;25.40;46.50
55634;DHT22;41504;53.162;6.788;2022-07-17T14:17:15;25.50;46.50
55634;DHT22;41504;53.162;6.788;2022-07-17T14:19:43;25.50;46.10
55634;DHT22;41504;53.162;6.788;2022-07-17T14:22:10;25.60;46.10
55634;DHT22;41504;53.162;6.788;2022-07-17T14:24:35;25.60;45.80
55634;DHT22;41504;53.162;6.788;2022-07-17T14:27:01;25.60;46.20
55634;DHT22;41504;53.162;6.788;2022-07-17T14:29:27;25.60;45.20
55634;DHT22;41504;53.162;6.788;2022-07-17T14:31:53;25.50;45.80
55634;DHT22;41504;53.162;6.788;2022-07-17T14:34:18;25.60;45.70
55634;DHT22;41504;53.162;6.788;2022-07-17T14:36:45;25.60;45.10
55634;DHT22;41504;53.162;6.788;2022-07-17T14:39:11;25.60;45.30
55634;DHT22;41504;53.162;6.788;2022-07-17T14:41:38;25.60;45.10
55634;DHT22;41504;53.162;6.788;2022-07-17T14:44:04;25.60;45.10
55634;DHT22;41504;53.162;6.788;2022-07-17T14:46:30;25.60;45.30
55634;DHT22;41504;53.162;6.788;2022-07-17T14:48:55;25.50;46.00
55634;DHT22;41504;53.162;6.788;2022-07-17T14:51:21;25.40;45.90
55634;DHT22;41504;53.162;6.788;2022-07-17T14:53:47;25.50;46.10
55634;DHT22;41504;53.162;6.788;2022-07-17T14:56:13;25.70;46.10
55634;DHT22;41504;53.162;6.788;2022-07-17T14:58:38;25.80;45.40
55634;DHT22;41504;53.162;6.788;2022-07-17T15:01:04;25.90;45.20
55634;DHT22;41504;53.162;6.788;2022-07-17T15:03:30;26.00;45.10
55634;DHT22;41504;53.162;6.788;2022-07-17T15:05:57;25.90;45.40
55634;DHT22;41504;53.162;6.788;2022-07-17T15:08:23;25.90;44.90
55634;DHT22;41504;53.162;6.788;2022-07-17T15:10:49;25.80;45.00
55634;DHT22;41504;53.162;6.788;2022-07-17T15:13:14;25.70;45.20
55634;DHT22;41504;53.162;6.788;2022-07-17T15:15:40;25.70;45.40
55634;DHT22;41504;53.162;6.788;2022-07-17T15:18:06;25.70;45.40
55634;DHT22;41504;53.162;6.788;2022-07-17T15:20:32;25.70;44.70
55634;DHT22;41504;53.162;6.788;2022-07-17T15:22:57;25.60;44.90
55634;DHT22;41504;53.162;6.788;2022-07-17T15:25:23;25.50;45.60
55634;DHT22;41504;53.162;6.788;2022-07-17T15:27:49;25.60;45.00
55634;DHT22;41504;53.162;6.788;2022-07-17T15:30:14;25.40;45.20
55634;DHT22;41504;53.162;6.788;2022-07-17T15:32:42;25.40;45.90
55634;DHT22;41504;53.162;6.788;2022-07-17T15:35:08;25.50;46.10